Time;durP1;ratioP1;P1;durP2;ratioP2;P2;SDS_P1;SDS_P2;PMS_P1;PMS_P2;Temp;Humidity;BMP_temperature;BMP_pressure;BME280_temperature;BME280_humidity;BME280_pressure;Samples;Min_cycle;Max_cycle;Signal;HPM_P1;HPM_P2
2021/06/24 00:02:06;;;;;;;5.97;4.37;;;;;;;;;;5118075;27;20572;-69
2021/06/24 00:04:34;;;;;;;8.30;4.70;;;;;;;;;;5114764;28;20549;-70
2021/06/24 00:07:02;;;;;;;7.37;4.87;;;;;;;;;;5115594;27;20498;-69
2021/06/24 00:09:32;;;;;;;9.00;4.37;;;;;;;;;;5115954;27;20524;-70
2021/06/24 00:12:10;;;;;;;6.87;3.97;;;;;;;;;;5098007;28;20495;-70
2021/06/24 00:14:39;;;;;;;6.47;4.00;;;;;;;;;;5105895;28;20457;-71
2021/06/24 00:17:17;;;;;;;5.50;3.77;;;;;;;;;;5118755;27;20463;-72
2021/06/24 00:19:46;;;;;;;7.10;3.70;;;;;;;;;;5118223;27;20474;-71
2021/06/24 00:22:34;;;;;;;7.00;3.30;;;;;;;;;;5119119;27;20527;-71
2021/06/24 00:25:20;;;;;;;5.50;3.37;;;;;;;;;;5118958;27;20446;-70
2021/06/24 00:27:48;;;;;;;6.57;3.70;;;;;;;;;;5117593;27;20458;-69
2021/06/24 00:30:17;;;;;;;9.60;5.30;;;;;;;;;;5117866;27;20454;-69
2021/06/24 00:32:48;;;;;;;8.70;4.30;;;;;;;;;;5117711;27;20455;-69
2021/06/24 00:35:19;;;;;;;5.37;3.90;;;;;;;;;;5119045;27;20490;-70
2021/06/24 00:37:47;;;;;;;7.70;4.63;;;;;;;;;;5118458;27;20457;-69
2021/06/24 00:40:17;;;;;;;8.60;4.00;;;;;;;;;;5117433;27;20727;-69
2021/06/24 00:42:45;;;;;;;4.70;3.50;;;;;;;;;;5118396;27;20545;-71
2021/06/24 00:45:15;;;;;;;6.30;4.17;;;;;;;;;;5117624;27;20443;-70
2021/06/24 00:47:43;;;;;;;8.60;4.07;;;;;;;;;;5118033;27;20498;-70
2021/06/24 00:50:14;;;;;;;8.50;4.37;;;;;;;;;;5118133;27;20814;-69
2021/06/24 00:52:45;;;;;;;7.30;4.10;;;;;;;;;;5117472;27;20458;-69
2021/06/24 00:55:13;;;;;;;6.33;3.97;;;;;;;;;;5116313;27;20462;-70
2021/06/24 00:57:42;;;;;;;7.27;3.37;;;;;;;;;;5118443;27;20462;-70
2021/06/24 01:00:11;;;;;;;7.77;4.60;;;;;;;;;;5118232;27;20515;-70
2021/06/24 01:02:40;;;;;;;6.63;4.07;;;;;;;;;;5117780;27;20502;-69
2021/06/24 01:05:08;;;;;;;7.57;3.63;;;;;;;;;;5117055;27;20451;-70
2021/06/24 01:07:36;;;;;;;5.87;4.33;;;;;;;;;;5118119;27;20825;-70
2021/06/24 01:10:04;;;;;;;10.53;4.47;;;;;;;;;;5116463;27;20529;-69
2021/06/24 01:12:32;;;;;;;10.73;4.30;;;;;;;;;;5117169;27;20573;-70
2021/06/24 01:15:01;;;;;;;5.37;3.07;;;;;;;;;;5116730;27;20561;-71
2021/06/24 01:17:29;;;;;;;11.43;4.40;;;;;;;;;;5117405;27;20563;-70
2021/06/24 01:19:57;;;;;;;12.13;5.90;;;;;;;;;;5117287;27;20546;-71
2021/06/24 01:22:24;;;;;;;6.07;4.47;;;;;;;;;;5116561;27;20910;-71
2021/06/24 01:24:53;;;;;;;8.93;4.07;;;;;;;;;;5115940;27;20689;-70
2021/06/24 01:27:21;;;;;;;3.73;3.00;;;;;;;;;;5097809;27;20475;-70
2021/06/24 01:29:49;;;;;;;9.67;4.03;;;;;;;;;;5104733;27;20559;-70
2021/06/24 01:32:17;;;;;;;5.83;3.53;;;;;;;;;;5116761;27;21104;-70
2021/06/24 01:34:45;;;;;;;9.43;4.70;;;;;;;;;;5115402;27;20749;-69
2021/06/24 01:37:13;;;;;;;7.47;3.93;;;;;;;;;;5116736;27;20446;-70
2021/06/24 01:39:41;;;;;;;13.07;4.70;;;;;;;;;;5116881;27;20482;-70
2021/06/24 01:42:14;;;;;;;6.40;4.37;;;;;;;;;;5117510;27;20446;-70
2021/06/24 01:44:42;;;;;;;9.60;4.93;;;;;;;;;;5116960;27;20827;-70
2021/06/24 01:47:13;;;;;;;14.43;4.70;;;;;;;;;;5116723;27;20523;-69
2021/06/24 01:49:41;;;;;;;8.43;5.20;;;;;;;;;;5116760;27;20453;-70
2021/06/24 01:52:09;;;;;;;35.90;30.73;;;;;;;;;;5116924;27;20533;-70
2021/06/24 01:54:36;;;;;;;53.93;45.97;;;;;;;;;;5115932;27;20455;-70
2021/06/24 01:57:04;;;;;;;57.30;50.87;;;;;;;;;;5116856;27;20781;-70
2021/06/24 01:59:33;;;;;;;60.83;52.03;;;;;;;;;;5117101;27;20562;-70
2021/06/24 02:02:01;;;;;;;58.27;51.97;;;;;;;;;;5116490;27;20547;-70
2021/06/24 02:04:29;;;;;;;22.83;17.57;;;;;;;;;;5117217;27;20458;-70
2021/06/24 02:06:57;;;;;;;25.23;14.77;;;;;;;;;;5117099;27;20446;-70
2021/06/24 02:09:25;;;;;;;16.83;11.50;;;;;;;;;;5116278;27;20777;-70
2021/06/24 02:11:55;;;;;;;13.40;9.40;;;;;;;;;;5116163;27;20602;-70
2021/06/24 02:14:22;;;;;;;13.70;6.40;;;;;;;;;;5116295;27;20455;-69
2021/06/24 02:16:52;;;;;;;12.23;7.27;;;;;;;;;;5116804;27;20546;-70
2021/06/24 02:19:20;;;;;;;8.27;5.60;;;;;;;;;;5116861;27;20486;-70
2021/06/24 02:21:47;;;;;;;22.40;13.37;;;;;;;;;;5117072;27;20454;-70
2021/06/24 02:24:16;;;;;;;33.13;17.97;;;;;;;;;;5115814;27;20473;-69
2021/06/24 02:26:43;;;;;;;48.53;29.83;;;;;;;;;;5116395;27;20461;-69
2021/06/24 02:29:11;;;;;;;52.77;35.20;;;;;;;;;;5116562;27;20497;-69
2021/06/24 02:31:39;;;;;;;54.67;34.50;;;;;;;;;;5116967;27;20482;-69
2021/06/24 02:34:08;;;;;;;42.33;27.10;;;;;;;;;;5117239;27;20462;-70
2021/06/24 02:36:35;;;;;;;23.10;14.47;;;;;;;;;;5116549;27;20565;-70
2021/06/24 02:39:03;;;;;;;34.23;18.93;;;;;;;;;;5115900;27;20525;-68
2021/06/24 02:41:33;;;;;;;22.30;14.17;;;;;;;;;;5117170;27;20820;-68
2021/06/24 02:44:01;;;;;;;10.10;6.57;;;;;;;;;;5115712;27;20464;-70
2021/06/24 02:46:29;;;;;;;8.93;5.90;;;;;;;;;;5116055;27;20455;-70
2021/06/24 02:48:56;;;;;;;13.17;6.93;;;;;;;;;;5116627;27;20455;-70
2021/06/24 02:51:26;;;;;;;11.07;5.77;;;;;;;;;;5116302;27;21143;-70
2021/06/24 02:53:54;;;;;;;7.37;4.87;;;;;;;;;;5116123;27;20475;-70
2021/06/24 02:56:23;;;;;;;10.23;5.13;;;;;;;;;;5113468;28;20486;-70
2021/06/24 02:58:51;;;;;;;8.77;5.20;;;;;;;;;;5115680;27;20734;-70
2021/06/24 03:01:19;;;;;;;9.27;5.33;;;;;;;;;;5116230;27;21036;-70
2021/06/24 03:03:46;;;;;;;12.27;5.27;;;;;;;;;;5116341;27;20447;-69
2021/06/24 03:06:14;;;;;;;7.20;5.10;;;;;;;;;;5116539;27;20558;-70
2021/06/24 03:08:43;;;;;;;8.07;5.20;;;;;;;;;;5115784;27;20898;-70
2021/06/24 03:11:11;;;;;;;6.93;4.53;;;;;;;;;;5115590;27;20450;-70
2021/06/24 03:13:39;;;;;;;8.57;4.90;;;;;;;;;;5116157;27;20833;-71
2021/06/24 03:16:07;;;;;;;8.30;5.60;;;;;;;;;;5118989;27;20561;-70
2021/06/24 03:18:35;;;;;;;8.93;4.50;;;;;;;;;;5119645;27;20519;-70
2021/06/24 03:21:02;;;;;;;7.17;4.70;;;;;;;;;;5119116;27;20825;-70
2021/06/24 03:23:30;;;;;;;7.63;4.97;;;;;;;;;;5118897;27;20512;-70
2021/06/24 03:25:59;;;;;;;11.80;4.47;;;;;;;;;;5119394;27;20455;-70
2021/06/24 03:28:27;;;;;;;11.30;5.70;;;;;;;;;;5118182;27;20551;-71
2021/06/24 03:30:55;;;;;;;11.70;6.10;;;;;;;;;;5134410;27;20469;-70
2021/06/24 03:33:22;;;;;;;9.27;5.53;;;;;;;;;;5140766;27;20489;-70
2021/06/24 03:35:51;;;;;;;8.43;5.50;;;;;;;;;;5119893;27;20796;-70
2021/06/24 03:38:18;;;;;;;6.73;4.93;;;;;;;;;;5113046;27;20469;-70
2021/06/24 03:40:46;;;;;;;7.70;4.60;;;;;;;;;;5119630;27;20454;-70
2021/06/24 03:43:15;;;;;;;8.30;4.20;;;;;;;;;;5118839;27;20557;-70
2021/06/24 03:45:43;;;;;;;8.80;4.93;;;;;;;;;;5119073;27;20938;-70
2021/06/24 03:48:10;;;;;;;9.37;4.70;;;;;;;;;;5119190;27;20562;-70
2021/06/24 03:50:38;;;;;;;7.17;4.57;;;;;;;;;;5119267;27;20776;-70
2021/06/24 03:53:06;;;;;;;8.23;5.67;;;;;;;;;;5118753;27;20770;-70
2021/06/24 03:55:38;;;;;;;11.43;4.70;;;;;;;;;;5119100;27;20901;-70
2021/06/24 03:58:06;;;;;;;7.60;4.20;;;;;;;;;;5115679;27;20919;-70
2021/06/24 04:00:36;;;;;;;7.33;4.60;;;;;;;;;;5111170;27;20534;-70
2021/06/24 04:03:04;;;;;;;7.03;5.03;;;;;;;;;;5118978;27;20462;-70
2021/06/24 04:05:32;;;;;;;8.13;4.13;;;;;;;;;;5109532;28;20451;-70
2021/06/24 04:08:02;;;;;;;6.60;3.77;;;;;;;;;;5118479;27;20524;-70
2021/06/24 04:10:31;;;;;;;6.83;4.20;;;;;;;;;;5118603;27;20458;-70
2021/06/24 04:12:58;;;;;;;9.90;4.73;;;;;;;;;;5118746;27;20563;-70
2021/06/24 04:15:26;;;;;;;9.40;3.83;;;;;;;;;;5118179;27;20462;-70
2021/06/24 04:17:56;;;;;;;6.17;5.27;;;;;;;;;;5115565;28;20803;-70
2021/06/24 04:20:24;;;;;;;7.33;4.23;;;;;;;;;;5118799;27;20471;-70
2021/06/24 04:22:51;;;;;;;6.27;4.53;;;;;;;;;;5117493;27;20550;-70
2021/06/24 04:25:20;;;;;;;9.40;4.47;;;;;;;;;;5114156;27;20855;-71
2021/06/24 04:27:51;;;;;;;6.00;4.57;;;;;;;;;;5111228;27;20528;-70
2021/06/24 04:30:19;;;;;;;9.10;4.73;;;;;;;;;;5098450;28;20452;-69
2021/06/24 04:32:47;;;;;;;7.70;4.60;;;;;;;;;;5111141;27;20506;-69
2021/06/24 04:35:17;;;;;;;7.80;4.77;;;;;;;;;;5113964;27;20548;-69
2021/06/24 04:37:44;;;;;;;13.53;5.00;;;;;;;;;;5118496;27;20497;-69
2021/06/24 04:40:13;;;;;;;8.83;4.83;;;;;;;;;;5117881;27;20451;-69
2021/06/24 04:42:40;;;;;;;10.30;4.03;;;;;;;;;;5117138;27;20549;-69
2021/06/24 04:45:09;;;;;;;8.80;4.30;;;;;;;;;;5117443;27;20439;-69
2021/06/24 04:47:37;;;;;;;6.30;4.57;;;;;;;;;;5109290;27;20714;-70
2021/06/24 04:50:05;;;;;;;11.53;6.93;;;;;;;;;;5113608;27;20443;-71
2021/06/24 04:52:34;;;;;;;10.17;5.47;;;;;;;;;;5113098;27;20490;-70
2021/06/24 04:55:01;;;;;;;9.13;4.50;;;;;;;;;;5111574;27;20534;-70
2021/06/24 04:57:29;;;;;;;11.83;5.93;;;;;;;;;;5100525;28;20561;-71
2021/06/24 04:59:58;;;;;;;7.10;4.27;;;;;;;;;;5115368;27;20457;-72
2021/06/24 05:02:25;;;;;;;11.33;5.00;;;;;;;;;;5117203;27;20515;-70
2021/06/24 05:04:55;;;;;;;8.30;4.67;;;;;;;;;;5115283;27;20539;-70
2021/06/24 05:07:22;;;;;;;8.40;4.47;;;;;;;;;;5113656;27;20461;-70
2021/06/24 05:09:55;;;;;;;8.20;4.87;;;;;;;;;;5116187;27;20538;-70
2021/06/24 05:12:24;;;;;;;7.20;4.33;;;;;;;;;;5113805;27;20496;-72
2021/06/24 05:14:52;;;;;;;8.87;5.50;;;;;;;;;;5117831;27;20450;-70
2021/06/24 05:17:20;;;;;;;6.37;4.60;;;;;;;;;;5115462;27;20455;-70
2021/06/24 05:19:48;;;;;;;16.80;5.47;;;;;;;;;;5114485;27;20549;-71
2021/06/24 05:22:17;;;;;;;6.37;5.10;;;;;;;;;;5113868;27;20478;-71
2021/06/24 05:24:45;;;;;;;10.73;5.33;;;;;;;;;;5115485;27;20447;-70
2021/06/24 05:27:14;;;;;;;7.80;4.50;;;;;;;;;;5114780;27;20458;-70
2021/06/24 05:29:43;;;;;;;8.03;5.13;;;;;;;;;;5115155;27;20453;-70
2021/06/24 05:32:13;;;;;;;8.17;5.37;;;;;;;;;;5108442;28;20478;-70
2021/06/24 05:34:41;;;;;;;10.00;4.73;;;;;;;;;;5114011;27;20459;-69
2021/06/24 05:37:08;;;;;;;8.53;5.20;;;;;;;;;;5115213;27;20494;-69
2021/06/24 05:39:38;;;;;;;11.40;5.47;;;;;;;;;;5113785;27;21010;-71
2021/06/24 05:42:06;;;;;;;11.13;6.23;;;;;;;;;;5113813;27;20553;-70
2021/06/24 05:44:35;;;;;;;8.60;5.40;;;;;;;;;;5114312;27;21015;-70
2021/06/24 05:47:03;;;;;;;8.73;5.20;;;;;;;;;;5111329;27;20498;-70
2021/06/24 05:49:31;;;;;;;8.50;5.50;;;;;;;;;;5113130;27;20511;-71
2021/06/24 05:51:59;;;;;;;10.63;6.30;;;;;;;;;;5109638;27;20470;-70
2021/06/24 05:54:27;;;;;;;11.10;7.30;;;;;;;;;;5111992;27;20757;-71
2021/06/24 05:56:55;;;;;;;12.33;6.10;;;;;;;;;;5114600;27;20549;-70
2021/06/24 05:59:22;;;;;;;7.90;5.60;;;;;;;;;;5109327;27;20475;-70
2021/06/24 06:01:51;;;;;;;17.20;5.27;;;;;;;;;;5115305;27;20492;-70
2021/06/24 06:04:19;;;;;;;13.20;5.20;;;;;;;;;;5115078;27;20551;-70
2021/06/24 06:06:50;;;;;;;9.17;6.20;;;;;;;;;;5121363;27;20450;-70
2021/06/24 06:09:18;;;;;;;7.60;5.43;;;;;;;;;;5116313;27;20455;-70
2021/06/24 06:11:45;;;;;;;14.53;5.40;;;;;;;;;;5115131;27;20494;-70
2021/06/24 06:14:13;;;;;;;8.97;7.87;;;;;;;;;;5115326;27;20522;-70
2021/06/24 06:16:44;;;;;;;6.97;5.87;;;;;;;;;;5106640;28;20446;-70
2021/06/24 06:19:17;;;;;;;9.27;5.33;;;;;;;;;;5114812;27;20551;-70
2021/06/24 06:21:44;;;;;;;7.20;4.57;;;;;;;;;;5114527;27;20562;-70
2021/06/24 06:24:12;;;;;;;12.03;5.27;;;;;;;;;;5113918;27;20460;-69
2021/06/24 06:26:40;;;;;;;11.77;4.73;;;;;;;;;;5113205;27;20553;-69
2021/06/24 06:29:07;;;;;;;10.90;5.17;;;;;;;;;;5107393;27;20524;-70
2021/06/24 06:31:38;;;;;;;8.47;5.50;;;;;;;;;;5111639;27;21110;-70
2021/06/24 06:34:09;;;;;;;7.27;4.53;;;;;;;;;;5106070;27;20539;-69
2021/06/24 06:36:39;;;;;;;8.27;5.07;;;;;;;;;;5094228;28;20802;-69
2021/06/24 06:39:06;;;;;;;7.27;4.50;;;;;;;;;;5110121;27;20450;-69
2021/06/24 06:41:37;;;;;;;14.23;4.90;;;;;;;;;;5114735;27;20527;-69
2021/06/24 06:44:05;;;;;;;7.03;5.23;;;;;;;;;;5115209;27;20450;-69
2021/06/24 06:46:32;;;;;;;5.50;3.87;;;;;;;;;;5114741;27;20490;-70
2021/06/24 06:49:02;;;;;;;7.23;4.80;;;;;;;;;;5115434;27;20446;-70
2021/06/24 06:51:30;;;;;;;8.73;4.80;;;;;;;;;;5120447;27;20532;-69
2021/06/24 06:54:15;;;;;;;6.53;4.00;;;;;;;;;;5119165;27;20516;-68
2021/06/24 06:56:46;;;;;;;6.87;4.77;;;;;;;;;;5112244;28;20451;-69
2021/06/24 06:59:21;;;;;;;14.70;4.50;;;;;;;;;;5118905;27;20734;-70
2021/06/24 07:01:55;;;;;;;6.70;4.10;;;;;;;;;;5118692;27;20561;-69
2021/06/24 07:04:26;;;;;;;8.70;5.33;;;;;;;;;;5119244;27;20553;-68
2021/06/24 07:06:53;;;;;;;13.53;4.20;;;;;;;;;;5127815;27;20972;-68
2021/06/24 07:09:22;;;;;;;7.50;3.67;;;;;;;;;;5119163;27;20552;-68
2021/06/24 07:11:50;;;;;;;7.70;4.10;;;;;;;;;;5118686;27;20462;-68
2021/06/24 07:14:21;;;;;;;5.17;3.50;;;;;;;;;;5118742;27;20506;-69
2021/06/24 07:16:48;;;;;;;5.80;3.23;;;;;;;;;;5118401;27;20462;-69
2021/06/24 07:19:19;;;;;;;5.13;3.50;;;;;;;;;;5117554;27;20514;-69
2021/06/24 07:21:46;;;;;;;7.67;3.60;;;;;;;;;;5116800;27;20882;-69
2021/06/24 07:24:21;;;;;;;5.50;3.50;;;;;;;;;;5107784;27;20460;-69
2021/06/24 07:26:50;;;;;;;6.67;3.10;;;;;;;;;;5116940;27;20549;-69
2021/06/24 07:29:19;;;;;;;5.57;4.20;;;;;;;;;;5118612;27;20797;-69
2021/06/24 07:31:48;;;;;;;5.10;3.57;;;;;;;;;;5115193;27;20457;-69
2021/06/24 07:34:16;;;;;;;7.17;3.43;;;;;;;;;;5118245;27;20898;-69
2021/06/24 07:36:45;;;;;;;7.13;3.17;;;;;;;;;;5116827;27;20505;-69
2021/06/24 07:39:14;;;;;;;6.97;3.63;;;;;;;;;;5115411;27;20558;-69
2021/06/24 07:41:41;;;;;;;9.20;3.43;;;;;;;;;;5111026;28;20508;-70
2021/06/24 07:44:10;;;;;;;11.50;4.20;;;;;;;;;;5106343;28;20490;-69
2021/06/24 07:46:38;;;;;;;6.10;4.23;;;;;;;;;;5108578;27;20582;-69
2021/06/24 07:49:06;;;;;;;7.47;3.73;;;;;;;;;;5117993;27;20447;-69
2021/06/24 07:51:41;;;;;;;7.00;3.20;;;;;;;;;;5117767;27;20565;-70
2021/06/24 07:54:10;;;;;;;5.07;3.40;;;;;;;;;;5116745;27;20474;-70
2021/06/24 07:56:38;;;;;;;7.57;3.83;;;;;;;;;;5117805;27;20449;-69
2021/06/24 07:59:10;;;;;;;8.10;3.93;;;;;;;;;;5116869;27;20579;-69
2021/06/24 08:01:41;;;;;;;7.17;4.73;;;;;;;;;;5116336;27;20458;-68
2021/06/24 08:04:10;;;;;;;6.57;3.80;;;;;;;;;;5111941;27;20491;-70
2021/06/24 08:06:38;;;;;;;7.80;2.93;;;;;;;;;;5116746;27;20801;-70
2021/06/24 08:09:10;;;;;;;6.70;3.90;;;;;;;;;;5115995;27;20918;-70
2021/06/24 08:11:41;;;;;;;6.23;4.30;;;;;;;;;;5116760;27;20554;-69
2021/06/24 08:14:17;;;;;;;6.93;3.70;;;;;;;;;;5116910;27;20479;-69
2021/06/24 08:16:56;;;;;;;9.67;4.40;;;;;;;;;;5109482;27;20450;-69
2021/06/24 08:19:23;;;;;;;6.13;3.70;;;;;;;;;;5112854;27;20542;-68
2021/06/24 08:21:57;;;;;;;7.73;3.47;;;;;;;;;;5117490;27;20510;-68
2021/06/24 08:24:29;;;;;;;10.20;3.90;;;;;;;;;;5117865;27;20467;-68
2021/06/24 08:26:57;;;;;;;5.37;3.33;;;;;;;;;;5116941;27;20551;-70
2021/06/24 08:29:25;;;;;;;8.00;3.90;;;;;;;;;;5117561;27;20497;-68
2021/06/24 08:31:55;;;;;;;5.60;3.37;;;;;;;;;;5117665;27;20466;-68
2021/06/24 08:34:29;;;;;;;4.83;3.07;;;;;;;;;;5116882;27;20536;-68
2021/06/24 08:36:58;;;;;;;6.00;4.10;;;;;;;;;;5109337;28;20463;-69
2021/06/24 08:39:26;;;;;;;6.77;3.30;;;;;;;;;;5097235;28;20481;-68
2021/06/24 08:41:56;;;;;;;5.13;3.70;;;;;;;;;;5097988;28;20495;-69
2021/06/24 08:44:24;;;;;;;7.23;3.77;;;;;;;;;;5100963;27;20544;-68
2021/06/24 08:46:52;;;;;;;9.43;4.40;;;;;;;;;;5101778;28;20463;-69
2021/06/24 08:49:27;;;;;;;7.40;3.53;;;;;;;;;;5097884;28;20455;-71
2021/06/24 08:51:55;;;;;;;5.03;3.47;;;;;;;;;;5096416;28;20953;-73
2021/06/24 08:54:26;;;;;;;5.47;3.80;;;;;;;;;;5095952;28;20490;-71
2021/06/24 08:57:01;;;;;;;10.37;4.27;;;;;;;;;;5095907;28;20894;-70
2021/06/24 08:59:32;;;;;;;4.70;3.33;;;;;;;;;;5095117;28;20850;-70
2021/06/24 09:02:00;;;;;;;7.43;3.77;;;;;;;;;;5095647;28;20463;-69
2021/06/24 09:04:31;;;;;;;5.67;4.07;;;;;;;;;;5096268;28;20464;-70
2021/06/24 09:07:07;;;;;;;5.03;3.70;;;;;;;;;;5096279;28;20495;-70
2021/06/24 09:09:36;;;;;;;5.63;4.70;;;;;;;;;;5112590;27;20531;-70
2021/06/24 09:12:10;;;;;;;8.83;4.23;;;;;;;;;;5113505;27;20459;-69
2021/06/24 09:14:38;;;;;;;8.10;3.93;;;;;;;;;;5114912;27;20478;-70
2021/06/24 09:17:06;;;;;;;11.07;3.77;;;;;;;;;;5116569;27;20458;-70
2021/06/24 09:19:35;;;;;;;9.77;3.90;;;;;;;;;;5116473;27;20494;-70
2021/06/24 09:22:07;;;;;;;6.20;3.40;;;;;;;;;;5116039;27;20810;-70
2021/06/24 09:24:35;;;;;;;6.20;3.60;;;;;;;;;;5114644;27;20538;-70
2021/06/24 09:27:05;;;;;;;8.67;4.10;;;;;;;;;;5106663;27;20470;-70
2021/06/24 09:29:36;;;;;;;6.90;4.10;;;;;;;;;;5116719;27;20514;-70
2021/06/24 09:32:04;;;;;;;7.70;4.03;;;;;;;;;;5136942;27;20892;-69
2021/06/24 09:34:33;;;;;;;12.33;5.10;;;;;;;;;;5137240;27;20576;-71
2021/06/24 09:37:05;;;;;;;6.80;4.17;;;;;;;;;;5136760;27;20575;-71
2021/06/24 09:39:40;;;;;;;9.50;4.90;;;;;;;;;;5132070;27;20457;-71
2021/06/24 09:42:09;;;;;;;5.70;3.70;;;;;;;;;;5117350;27;20450;-70
2021/06/24 09:45:02;;;;;;;5.50;3.10;;;;;;;;;;5117410;27;20489;-70
2021/06/24 09:47:40;;;;;;;5.47;3.33;;;;;;;;;;5112014;27;20492;-70
2021/06/24 09:50:12;;;;;;;6.57;3.60;;;;;;;;;;5111834;27;20873;-70
2021/06/24 09:53:04;;;;;;;5.17;3.10;;;;;;;;;;5115840;27;20450;-70
2021/06/24 09:55:40;;;;;;;12.20;3.83;;;;;;;;;;5114232;27;20478;-70
2021/06/24 09:58:16;;;;;;;5.57;3.90;;;;;;;;;;5111272;27;20482;-69
2021/06/24 10:00:54;;;;;;;5.20;3.60;;;;;;;;;;5108689;28;20502;-69
2021/06/24 10:03:22;;;;;;;6.17;3.50;;;;;;;;;;5111340;27;20587;-70
2021/06/24 10:05:50;;;;;;;7.93;3.73;;;;;;;;;;5113105;27;20455;-70
2021/06/24 10:08:18;;;;;;;4.50;2.33;;;;;;;;;;5136816;27;20456;-69
2021/06/24 10:10:50;;;;;;;5.37;2.80;;;;;;;;;;5106907;28;20459;-70
2021/06/24 10:13:18;;;;;;;5.60;3.07;;;;;;;;;;5099816;28;20484;-70
2021/06/24 10:15:47;;;;;;;5.13;3.50;;;;;;;;;;5115645;27;20469;-70
2021/06/24 10:18:20;;;;;;;5.27;3.10;;;;;;;;;;5119104;27;20454;-69
2021/06/24 10:20:48;;;;;;;3.53;3.20;;;;;;;;;;5114674;27;20522;-69
2021/06/24 10:23:19;;;;;;;5.83;4.07;;;;;;;;;;5114988;27;20503;-69
2021/06/24 10:25:50;;;;;;;6.77;3.40;;;;;;;;;;5119315;27;20455;-71
2021/06/24 10:28:19;;;;;;;5.20;3.33;;;;;;;;;;5119646;27;20484;-69
2021/06/24 10:30:50;;;;;;;5.07;3.10;;;;;;;;;;5114213;28;20476;-69
2021/06/24 10:33:18;;;;;;;6.80;3.73;;;;;;;;;;5118863;27;20478;-70
2021/06/24 10:35:48;;;;;;;4.57;2.50;;;;;;;;;;5119342;27;20518;-70
2021/06/24 10:38:17;;;;;;;4.77;3.10;;;;;;;;;;5121463;27;20454;-69
2021/06/24 10:40:45;;;;;;;8.83;6.50;;;;;;;;;;5117595;27;20824;-70
2021/06/24 10:43:15;;;;;;;4.73;2.90;;;;;;;;;;5118744;27;20462;-69
2021/06/24 10:45:48;;;;;;;4.50;3.30;;;;;;;;;;5119492;27;20492;-70
2021/06/24 10:48:27;;;;;;;3.90;3.23;;;;;;;;;;5118682;27;20855;-69
2021/06/24 10:50:58;;;;;;;4.93;2.90;;;;;;;;;;5118544;27;20462;-69
2021/06/24 10:53:47;;;;;;;4.20;2.80;;;;;;;;;;5116501;27;20462;-70
2021/06/24 10:56:31;;;;;;;6.10;3.27;;;;;;;;;;5118872;27;20459;-70
2021/06/24 10:59:10;;;;;;;12.53;3.73;;;;;;;;;;5114259;27;20493;-70
2021/06/24 11:01:43;;;;;;;3.60;2.73;;;;;;;;;;5101988;28;20465;-69
2021/06/24 11:04:27;;;;;;;6.27;3.03;;;;;;;;;;5121001;27;20470;-69
2021/06/24 11:06:55;;;;;;;3.80;2.50;;;;;;;;;;5097492;28;20644;-70
2021/06/24 11:09:25;;;;;;;3.20;2.60;;;;;;;;;;5096932;28;20554;-69
2021/06/24 11:11:56;;;;;;;5.13;2.97;;;;;;;;;;5098111;28;20520;-69
2021/06/24 11:14:49;;;;;;;3.83;3.30;;;;;;;;;;5098806;28;20479;-70
2021/06/24 11:17:32;;;;;;;5.87;3.40;;;;;;;;;;5098581;28;20475;-69
2021/06/24 11:20:14;;;;;;;5.80;3.37;;;;;;;;;;5078089;28;20907;-71
2021/06/24 11:22:51;;;;;;;10.43;4.40;;;;;;;;;;5098061;28;20463;-71
2021/06/24 11:25:19;;;;;;;5.40;3.87;;;;;;;;;;5097893;28;20459;-70
2021/06/24 11:27:47;;;;;;;7.07;3.30;;;;;;;;;;5096709;28;20498;-70
2021/06/24 11:30:41;;;;;;;5.20;3.53;;;;;;;;;;5094060;28;20452;-70
2021/06/24 11:33:09;;;;;;;3.63;3.03;;;;;;;;;;5108293;27;20462;-70
2021/06/24 11:35:52;;;;;;;4.33;3.37;;;;;;;;;;5116991;27;20551;-71
2021/06/24 11:38:20;;;;;;;3.37;2.17;;;;;;;;;;5116373;27;20453;-71
2021/06/24 11:40:48;;;;;;;5.03;3.23;;;;;;;;;;5113205;27;20525;-70
2021/06/24 11:43:22;;;;;;;7.03;3.73;;;;;;;;;;5103649;28;20451;-70
2021/06/24 11:45:56;;;;;;;4.53;2.60;;;;;;;;;;5091723;28;20459;-71
2021/06/24 11:48:32;;;;;;;5.30;3.23;;;;;;;;;;5097189;28;20766;-71
2021/06/24 12:04:58;;;;;;;3.20;2.30;;;;;;;;;;5046049;28;20548;-71
2021/06/24 12:07:28;;;;;;;6.83;3.53;;;;;;;;;;5092298;28;20459;-70
2021/06/24 12:09:56;;;;;;;6.27;3.90;;;;;;;;;;5100749;28;20458;-70
2021/06/24 12:12:24;;;;;;;3.80;3.47;;;;;;;;;;5116587;27;20466;-70
2021/06/24 12:14:53;;;;;;;4.50;3.23;;;;;;;;;;5117545;27;20575;-70
2021/06/24 12:17:23;;;;;;;9.50;4.70;;;;;;;;;;5117875;27;20486;-70
2021/06/24 12:20:01;;;;;;;6.57;3.30;;;;;;;;;;5113295;28;20452;-69
2021/06/24 12:22:49;;;;;;;8.63;3.10;;;;;;;;;;5096382;28;20474;-69
2021/06/24 12:25:19;;;;;;;6.63;4.13;;;;;;;;;;5077034;28;20456;-69
2021/06/24 12:27:47;;;;;;;5.30;2.63;;;;;;;;;;5094456;28;20464;-69
2021/06/24 12:30:16;;;;;;;6.30;2.93;;;;;;;;;;5097842;28;20882;-69
2021/06/24 12:32:53;;;;;;;5.40;2.33;;;;;;;;;;5097526;28;20483;-69
2021/06/24 12:35:24;;;;;;;9.10;2.60;;;;;;;;;;5096505;28;20482;-69
2021/06/24 12:37:54;;;;;;;3.67;3.30;;;;;;;;;;5095664;28;20447;-69
2021/06/24 12:40:23;;;;;;;5.33;2.10;;;;;;;;;;5095543;28;20728;-69
2021/06/24 12:42:52;;;;;;;3.93;2.23;;;;;;;;;;5094553;28;20467;-68
2021/06/24 12:45:22;;;;;;;6.30;2.43;;;;;;;;;;5096552;28;20925;-69
2021/06/24 12:47:50;;;;;;;5.27;3.60;;;;;;;;;;5095056;28;20452;-69
2021/06/24 12:50:19;;;;;;;3.97;2.97;;;;;;;;;;5095377;28;20945;-68
2021/06/24 12:52:51;;;;;;;3.63;2.90;;;;;;;;;;5100187;28;20483;-68
2021/06/24 12:55:36;;;;;;;4.00;3.03;;;;;;;;;;5096761;28;20553;-67
2021/06/24 12:58:06;;;;;;;5.43;3.10;;;;;;;;;;5095453;28;20513;-68
2021/06/24 13:00:34;;;;;;;4.80;2.97;;;;;;;;;;5096201;28;20480;-67
2021/06/24 13:03:02;;;;;;;4.30;3.10;;;;;;;;;;5095435;28;20482;-69
2021/06/24 13:05:33;;;;;;;3.80;2.77;;;;;;;;;;5096356;28;20463;-68
2021/06/24 13:08:04;;;;;;;4.43;2.50;;;;;;;;;;5095703;28;20452;-69
2021/06/24 13:11:26;;;;;;;7.03;3.37;;;;;;;;;;5096921;28;20877;-69
2021/06/24 13:13:59;;;;;;;4.03;3.47;;;;;;;;;;5099047;28;20444;-70
2021/06/24 13:16:29;;;;;;;3.60;3.30;;;;;;;;;;5093051;28;20574;-68
2021/06/24 13:18:57;;;;;;;4.60;3.00;;;;;;;;;;5097320;28;20503;-69
2021/06/24 13:24:37;;;;;;;5.50;3.07;;;;;;;;;;5038464;28;20484;-67
2021/06/24 13:27:07;;;;;;;4.20;2.80;;;;;;;;;;5095190;28;20930;-68
2021/06/24 13:29:39;;;;;;;4.20;3.00;;;;;;;;;;5094617;28;20443;-69
2021/06/24 13:32:11;;;;;;;3.97;2.90;;;;;;;;;;5096624;28;20512;-69
2021/06/24 13:34:40;;;;;;;4.57;2.87;;;;;;;;;;5089001;28;20480;-68
2021/06/24 13:37:28;;;;;;;4.20;2.70;;;;;;;;;;5094263;28;20452;-69
2021/06/24 13:39:58;;;;;;;4.53;2.97;;;;;;;;;;5095898;28;20487;-68
2021/06/24 13:42:26;;;;;;;3.60;3.30;;;;;;;;;;5094231;28;20470;-69
2021/06/24 13:45:06;;;;;;;6.10;4.10;;;;;;;;;;5095630;28;20528;-68
2021/06/24 13:47:50;;;;;;;6.43;2.97;;;;;;;;;;5096150;28;20487;-70
2021/06/24 13:50:26;;;;;;;6.40;2.80;;;;;;;;;;5091719;28;20443;-69
2021/06/24 13:53:21;;;;;;;4.37;3.30;;;;;;;;;;5093134;28;20447;-69
2021/06/24 13:59:19;;;;;;;6.37;3.10;;;;;;;;;;5093771;28;20467;-70
2021/06/24 14:02:07;;;;;;;3.43;2.80;;;;;;;;;;5097413;28;20462;-70
2021/06/24 14:04:56;;;;;;;3.27;2.47;;;;;;;;;;5095560;28;20478;-70
2021/06/24 14:07:24;;;;;;;5.40;3.37;;;;;;;;;;5094618;28;21101;-69
2021/06/24 14:09:56;;;;;;;3.60;3.30;;;;;;;;;;5091392;28;20475;-70
2021/06/24 14:12:27;;;;;;;8.13;3.53;;;;;;;;;;5081253;28;20532;-70
2021/06/24 14:14:56;;;;;;;4.47;3.40;;;;;;;;;;5086052;28;20571;-70
2021/06/24 14:28:05;;;;;;;3.33;2.77;;;;;;;;;;5090659;28;21022;-69
2021/06/24 14:30:42;;;;;;;5.03;3.30;;;;;;;;;;5096077;28;20466;-69
2021/06/24 14:33:32;;;;;;;4.97;3.30;;;;;;;;;;5116470;28;20465;-69
2021/06/24 14:36:07;;;;;;;7.77;5.73;;;;;;;;;;5106555;28;20490;-70
2021/06/24 14:38:48;;;;;;;17.53;13.47;;;;;;;;;;5101037;28;20463;-70
2021/06/24 14:41:17;;;;;;;4.23;3.50;;;;;;;;;;5086616;28;20513;-69
2021/06/24 14:44:04;;;;;;;3.60;2.73;;;;;;;;;;5104539;28;20586;-68
2021/06/24 14:46:34;;;;;;;5.93;4.00;;;;;;;;;;5102426;28;20774;-68
2021/06/24 14:49:02;;;;;;;6.27;3.80;;;;;;;;;;5113679;28;20450;-70
2021/06/24 14:51:30;;;;;;;3.20;2.70;;;;;;;;;;5110993;28;20462;-70
2021/06/24 14:54:05;;;;;;;4.23;3.20;;;;;;;;;;5106293;28;20542;-69
2021/06/24 14:56:33;;;;;;;4.60;3.43;;;;;;;;;;5102168;28;20932;-69
2021/06/24 14:59:07;;;;;;;4.70;3.17;;;;;;;;;;5106532;28;20863;-68
2021/06/24 15:01:36;;;;;;;5.50;3.50;;;;;;;;;;5112324;28;20453;-69
2021/06/24 15:04:11;;;;;;;4.50;3.83;;;;;;;;;;5111693;28;20486;-70
2021/06/24 15:06:43;;;;;;;4.97;3.03;;;;;;;;;;5114015;28;20438;-70
2021/06/24 15:09:12;;;;;;;4.63;3.57;;;;;;;;;;5104366;28;20451;-69
2021/06/24 15:11:44;;;;;;;5.40;3.43;;;;;;;;;;5118219;28;20462;-69
2021/06/24 15:14:23;;;;;;;5.83;3.50;;;;;;;;;;5116901;28;20696;-71
2021/06/24 15:19:56;;;;;;;4.83;2.67;;;;;;;;;;5073338;28;20467;-72
2021/06/24 15:22:42;;;;;;;4.20;3.10;;;;;;;;;;5111500;28;21186;-67
2021/06/24 15:25:29;;;;;;;5.10;3.20;;;;;;;;;;5118829;28;20439;-68
2021/06/24 15:28:04;;;;;;;5.70;3.20;;;;;;;;;;5119148;28;20464;-69
2021/06/24 15:30:51;;;;;;;3.30;3.00;;;;;;;;;;5108654;28;20599;-71
2021/06/24 15:33:33;;;;;;;3.83;2.90;;;;;;;;;;5108089;28;20454;-70
2021/06/24 15:36:08;;;;;;;5.83;3.27;;;;;;;;;;5113373;28;20766;-69
2021/06/24 15:38:37;;;;;;;6.10;3.30;;;;;;;;;;5103691;28;20459;-68